Accueil
METAR-TAF:

METAR-TAF

Aéroports :

Aéroport de Roberval

Roberval, Québec, Canada

latitude: 48-31N, longitude: 072-16W, altitude: 179 m

Observation

Le bulletin a été fait il y a 47 minutes, à 23:00 UTC
Vent 2 kt de direction variable
Température 14°C
Humidité 41%
Pression 1008 hPa
Visibilité: 64.4 km
Nuages épars à une hauteur de 9300 ft

METAR: CYRJ 022300Z VRB02KT 40SM SCT093 14/01 A2977 RMK AC4 SLP088 DENSITY ALT 900FT

Heure: 19:47 (23:47 UTC)

Prévision

Le bulletin a été fait il y a 4 heures et 9 minutes, à 19:38 UTC
Prévision valable du 02 à 20 UTC au 03 à 02 UTC
Vent 8 kt de est/sud-est
Visibilité: 10 km
Nuages fragmentés à une hauteur de 6000 ft
Evoluant progressivement
du 02 à 22 UTC au 02 à 24 UTC
Vent 3 kt de direction variable

TAF: CYRJ 021938Z 0220/0302 11008KT P6SM BKN060 BECMG 0222/0224 VRB03KT RMK NXT FCST WILL BE ISSUED AT 031145Z

Observations et prévisions météorologiques de plus de 4000 aéroports (messages METAR et TAF).

Les stations disponibles sont représentées par des disques jaunes et rouges sur la carte.

Passer la souris dessus pour voir le nom de la station.

Cliquer dessus pour voir les observations et prévisions météorologiques.

Pour changer de carte: cliquez sur les boutons verts avec une croix noire pour zoomer, sur le bouton vert avec un tiret pour effectuer un zoom arrière, ou sur les flèches vertes pour les cartes adjacentes.


METAR-TAF: